createdAt,value
2019-01-11T00:01:33.840Z,0.49
2019-01-11T00:04:38.193Z,0.48
2019-01-11T00:07:42.461Z,0.49
2019-01-11T00:10:46.785Z,0.58
2019-01-11T00:13:51.072Z,0.49
2019-01-11T00:16:55.407Z,0.57
2019-01-11T00:20:03.468Z,0.53
2019-01-11T00:23:05.900Z,0.52
2019-01-11T00:26:10.181Z,0.55
2019-01-11T00:29:14.521Z,0.53
2019-01-11T00:32:18.886Z,0.54
2019-01-11T00:35:23.225Z,0.57
2019-01-11T00:38:27.576Z,0.53
2019-01-11T00:41:31.918Z,0.55
2019-01-11T00:44:36.197Z,0.59
2019-01-11T00:47:40.492Z,0.58
2019-01-11T00:50:44.782Z,0.60
2019-01-11T00:53:49.213Z,0.57
2019-01-11T00:56:53.547Z,0.53
2019-01-11T00:59:57.880Z,0.57
2019-01-11T01:03:02.210Z,0.63
2019-01-11T01:06:06.832Z,0.59
2019-01-11T01:09:11.121Z,0.61
2019-01-11T01:12:15.414Z,0.63
2019-01-11T01:15:20.598Z,0.60
2019-01-11T01:18:24.929Z,0.62
2019-01-11T01:21:29.242Z,0.65
2019-01-11T01:24:33.495Z,0.59
2019-01-11T01:27:37.750Z,0.55
2019-01-11T01:30:42.329Z,0.62
2019-01-11T01:33:46.580Z,0.59
2019-01-11T01:36:50.877Z,0.67
2019-01-11T01:39:55.206Z,0.66
2019-01-11T01:43:00.901Z,0.63
2019-01-11T01:46:05.590Z,0.64
2019-01-11T01:49:09.990Z,0.60
2019-01-11T01:52:14.512Z,0.61
2019-01-11T01:55:18.766Z,0.63
2019-01-11T01:58:23.080Z,0.59
2019-01-11T02:01:27.442Z,0.64
2019-01-11T02:04:31.802Z,0.62
2019-01-11T02:07:36.110Z,0.62
2019-01-11T02:10:40.365Z,0.64
2019-01-11T02:13:44.781Z,0.60
2019-01-11T02:16:49.057Z,0.66
2019-01-11T02:19:53.474Z,0.67
2019-01-11T02:22:57.698Z,0.68
2019-01-11T02:26:02.048Z,0.68
2019-01-11T02:29:06.459Z,0.86
2019-01-11T02:32:10.784Z,0.71
2019-01-11T02:35:15.129Z,0.73
2019-01-11T02:38:19.445Z,0.71
2019-01-11T02:41:23.765Z,0.72
2019-01-11T02:44:28.065Z,0.76
2019-01-11T02:47:32.395Z,0.69
2019-01-11T02:50:36.745Z,0.68
2019-01-11T02:53:41.085Z,0.72
2019-01-11T02:56:45.455Z,0.68
2019-01-11T02:59:49.796Z,0.74
2019-01-11T03:02:54.082Z,0.79
2019-01-11T03:05:58.416Z,0.72
2019-01-11T03:09:02.760Z,0.77
2019-01-11T03:12:07.150Z,0.74
2019-01-11T03:15:11.546Z,0.80
2019-01-11T03:18:15.885Z,0.75
2019-01-11T03:21:20.150Z,0.77
2019-01-11T03:24:24.450Z,0.79
2019-01-11T03:27:28.749Z,0.78
2019-01-11T03:30:33.141Z,0.81
2019-01-11T03:33:37.461Z,0.78
2019-01-11T03:36:41.795Z,0.78
2019-01-11T03:39:46.148Z,0.76
2019-01-11T03:42:50.696Z,0.77
2019-01-11T03:45:54.951Z,0.78
2019-01-11T03:48:59.149Z,0.84
2019-01-11T03:52:03.404Z,0.87
2019-01-11T03:55:09.999Z,0.80
2019-01-11T03:58:14.241Z,0.79
2019-01-11T04:01:18.567Z,0.83
2019-01-11T04:04:22.811Z,0.83
2019-01-11T04:07:27.076Z,0.84
2019-01-11T04:10:31.410Z,0.88
2019-01-11T04:13:35.658Z,0.90
2019-01-11T04:16:39.977Z,0.83
2019-01-11T04:19:44.325Z,0.86
2019-01-11T04:22:51.780Z,0.87
2019-01-11T04:25:56.150Z,0.86
2019-01-11T04:29:00.471Z,0.81
2019-01-11T04:32:04.694Z,0.83
2019-01-11T04:35:09.174Z,0.86
2019-01-11T04:38:13.426Z,0.89
2019-01-11T04:41:17.701Z,0.89
2019-01-11T04:44:22.008Z,0.90
2019-01-11T04:47:26.506Z,0.91
2019-01-11T04:50:30.895Z,0.88
2019-01-11T04:53:35.179Z,0.97
2019-01-11T04:56:39.469Z,0.93
2019-01-11T04:59:43.764Z,0.89
2019-01-11T05:02:48.054Z,0.94
2019-01-11T05:05:52.361Z,0.91
2019-01-11T05:08:56.654Z,0.92
2019-01-11T05:12:00.934Z,0.99
2019-01-11T05:15:06.054Z,0.98
2019-01-11T05:18:10.355Z,0.93
2019-01-11T05:21:14.754Z,0.92
2019-01-11T05:24:19.149Z,0.97
2019-01-11T05:27:23.594Z,1.02
2019-01-11T05:30:27.879Z,0.96
2019-01-11T05:33:32.186Z,0.99
2019-01-11T05:36:36.571Z,1.03
2019-01-11T05:39:40.846Z,1.02
2019-01-11T05:42:45.279Z,1.06
2019-01-11T05:45:49.588Z,1.01
2019-01-11T05:48:54.158Z,1.04
2019-01-11T05:51:58.443Z,1.05
2019-01-11T05:55:02.746Z,1.05
2019-01-11T05:58:25.965Z,1.07
2019-01-11T06:01:30.281Z,1.06
2019-01-11T06:04:44.166Z,1.08
2019-01-11T06:07:54.979Z,1.11
2019-01-11T06:10:59.416Z,1.16
2019-01-11T06:14:03.766Z,1.09
2019-01-11T06:17:08.121Z,1.12
2019-01-11T06:20:15.251Z,1.17
2019-01-11T06:23:19.578Z,1.23
2019-01-11T06:26:23.988Z,1.16
2019-01-11T06:29:28.420Z,1.24
2019-01-11T06:32:32.720Z,1.17
2019-01-11T06:35:36.976Z,1.21
2019-01-11T06:38:41.266Z,1.19
2019-01-11T06:41:51.490Z,1.24
2019-01-11T06:44:55.951Z,1.34
2019-01-11T06:48:00.321Z,1.25
2019-01-11T06:51:04.629Z,1.34
2019-01-11T06:54:08.929Z,1.27
2019-01-11T06:57:13.223Z,1.29
2019-01-11T07:00:17.664Z,1.38
2019-01-11T07:03:21.950Z,1.36
2019-01-11T07:06:26.218Z,1.34
2019-01-11T07:09:30.569Z,1.39
2019-01-11T07:12:34.877Z,1.34
2019-01-11T07:15:39.198Z,1.38
2019-01-11T07:18:43.504Z,1.38
2019-01-11T07:21:47.789Z,1.47
2019-01-11T07:24:52.162Z,1.40
2019-01-11T07:28:01.058Z,1.39
2019-01-11T07:31:09.954Z,1.47
2019-01-11T07:34:14.245Z,1.46
2019-01-11T07:37:18.579Z,1.48
2019-01-11T07:40:22.853Z,1.61
2019-01-11T07:43:27.171Z,1.60
2019-01-11T07:46:31.415Z,1.57
2019-01-11T07:49:35.750Z,1.60
2019-01-11T07:52:40.304Z,1.65
2019-01-11T07:55:44.613Z,1.62
2019-01-11T07:58:48.940Z,1.69
2019-01-11T08:01:53.170Z,1.69
2019-01-11T08:04:57.484Z,1.67
2019-01-11T08:08:01.773Z,1.72
2019-01-11T08:11:06.194Z,1.71
2019-01-11T08:14:10.599Z,1.82
2019-01-11T08:17:14.908Z,1.78
2019-01-11T08:20:19.159Z,1.73
2019-01-11T08:23:23.458Z,1.82
2019-01-11T08:26:27.790Z,1.88
2019-01-11T08:29:32.145Z,1.92
2019-01-11T08:32:36.465Z,2.03
2019-01-11T08:35:40.778Z,2.01
2019-01-11T08:38:45.065Z,2.01
2019-01-11T08:41:49.380Z,2.01
2019-01-11T08:44:53.774Z,2.29
2019-01-11T08:47:58.152Z,2.12
2019-01-11T08:51:02.956Z,2.10
2019-01-11T08:54:07.299Z,2.21
2019-01-11T08:57:11.695Z,2.16
2019-01-11T09:00:16.150Z,2.21
2019-01-11T09:03:20.529Z,2.23
2019-01-11T09:06:24.903Z,2.27
2019-01-11T09:09:29.267Z,2.27
2019-01-11T09:12:33.599Z,2.28
2019-01-11T09:15:37.987Z,2.35
2019-01-11T09:18:54.679Z,2.39
2019-01-11T09:21:58.979Z,2.42
2019-01-11T09:25:03.315Z,2.46
2019-01-11T09:28:07.733Z,2.64
2019-01-11T09:31:12.237Z,2.76
2019-01-11T09:34:16.548Z,2.75
2019-01-11T09:37:20.899Z,2.88
2019-01-11T09:40:25.274Z,3.04
2019-01-11T09:43:29.539Z,3.17
2019-01-11T09:46:33.922Z,3.14
2019-01-11T09:49:38.230Z,3.33
2019-01-11T09:52:42.590Z,3.40
2019-01-11T09:55:46.896Z,3.59
2019-01-11T09:58:51.175Z,3.56
2019-01-11T10:02:26.704Z,3.49
2019-01-11T10:05:31.049Z,3.65
2019-01-11T10:08:35.374Z,3.64
2019-01-11T10:11:39.764Z,3.61
2019-01-11T10:14:44.137Z,3.72
2019-01-11T10:17:50.194Z,3.88
2019-01-11T10:20:54.627Z,4.26
2019-01-11T10:23:59.051Z,4.17
2019-01-11T10:27:03.324Z,4.21
2019-01-11T10:30:11.219Z,4.14
2019-01-11T10:33:15.523Z,4.13
2019-01-11T10:36:19.858Z,4.17
2019-01-11T10:39:24.109Z,4.26
2019-01-11T10:42:28.442Z,4.27
2019-01-11T10:45:32.703Z,4.17
2019-01-11T10:48:37.012Z,4.05
2019-01-11T10:51:41.398Z,4.13
2019-01-11T10:54:45.754Z,4.19
2019-01-11T10:57:50.437Z,4.27
2019-01-11T11:00:54.790Z,4.17
2019-01-11T11:03:59.120Z,4.24
2019-01-11T11:07:03.548Z,4.22
2019-01-11T11:10:09.340Z,4.27
2019-01-11T11:13:13.647Z,4.32
2019-01-11T11:16:17.930Z,4.43
2019-01-11T11:19:22.234Z,4.39
2019-01-11T11:22:26.514Z,4.48
2019-01-11T11:25:30.834Z,4.46
2019-01-11T11:28:35.133Z,4.36
2019-01-11T11:31:39.396Z,4.34
2019-01-11T11:34:46.428Z,4.53
2019-01-11T11:37:50.857Z,4.69
2019-01-11T11:40:55.168Z,5.03
2019-01-11T11:43:59.498Z,5.11
2019-01-11T11:47:03.813Z,5.31
2019-01-11T11:50:08.515Z,5.42
2019-01-11T11:53:12.769Z,5.53
2019-01-11T11:56:17.102Z,5.42
2019-01-11T11:59:21.375Z,5.61
2019-01-11T12:02:25.672Z,5.84
2019-01-11T12:05:30.017Z,6.00
2019-01-11T12:08:34.409Z,6.08
2019-01-11T12:11:39.023Z,6.20
2019-01-11T12:14:43.298Z,6.34
2019-01-11T12:17:47.628Z,6.48
2019-01-11T12:20:51.892Z,6.42
2019-01-11T12:23:56.169Z,6.64
2019-01-11T12:27:00.395Z,6.53
2019-01-11T12:30:06.444Z,6.53
2019-01-11T12:33:10.788Z,6.69
2019-01-11T12:36:15.100Z,6.69
2019-01-11T12:39:19.458Z,6.64
2019-01-11T12:42:23.723Z,6.61
2019-01-11T12:45:28.013Z,6.59
2019-01-11T12:48:32.469Z,6.69
2019-01-11T12:51:36.833Z,6.80
2019-01-11T12:54:41.161Z,6.83
2019-01-11T12:57:45.498Z,6.80
2019-01-11T13:00:49.723Z,6.76
2019-01-11T13:03:54.081Z,6.82
2019-01-11T13:06:58.436Z,6.81
2019-01-11T13:10:02.748Z,6.82
2019-01-11T13:13:07.077Z,6.76
2019-01-11T13:16:11.427Z,6.84
2019-01-11T13:19:15.808Z,6.70
2019-01-11T13:22:20.145Z,6.66
2019-01-11T13:25:24.467Z,6.72
2019-01-11T13:28:28.759Z,6.71
2019-01-11T13:31:33.137Z,6.76
2019-01-11T13:34:37.477Z,6.78
2019-01-11T13:37:41.744Z,6.73
2019-01-11T13:40:46.083Z,6.75
2019-01-11T13:43:50.392Z,6.78
2019-01-11T13:46:54.772Z,6.78
2019-01-11T13:49:59.122Z,6.85
2019-01-11T13:53:03.529Z,6.84
2019-01-11T13:56:07.889Z,6.85
2019-01-11T13:59:12.162Z,6.83
2019-01-11T14:02:16.482Z,6.84
2019-01-11T14:05:20.794Z,6.83
2019-01-11T14:08:25.158Z,6.84
2019-01-11T14:11:29.484Z,6.89
2019-01-11T14:14:33.853Z,6.90
2019-01-11T14:17:38.182Z,6.89
2019-01-11T14:20:42.541Z,6.98
2019-01-11T14:23:46.915Z,6.90
2019-01-11T14:26:51.222Z,6.93
2019-01-11T14:29:55.541Z,6.83
2019-01-11T14:32:59.809Z,6.90
2019-01-11T14:36:04.396Z,6.86
2019-01-11T14:39:09.701Z,6.83
2019-01-11T14:42:14.061Z,6.73
2019-01-11T14:45:18.769Z,6.73
2019-01-11T14:48:23.078Z,6.75
2019-01-11T14:51:27.367Z,6.72
2019-01-11T14:54:31.738Z,6.73
2019-01-11T14:57:36.100Z,6.72
2019-01-11T15:00:40.537Z,6.72
2019-01-11T15:03:44.972Z,6.70
2019-01-11T15:06:49.454Z,6.72
2019-01-11T15:09:53.844Z,6.78
2019-01-11T15:12:58.248Z,6.71
2019-01-11T15:16:02.581Z,6.76
2019-01-11T15:19:07.037Z,6.78
2019-01-11T15:22:11.428Z,6.69
2019-01-11T15:25:15.728Z,6.73
2019-01-11T15:28:20.082Z,6.74
2019-01-11T15:31:24.396Z,6.70
2019-01-11T15:34:28.656Z,6.66
2019-01-11T15:37:33.061Z,6.66
2019-01-11T15:40:38.339Z,6.64
2019-01-11T15:43:42.756Z,6.61
2019-01-11T15:46:47.046Z,6.64
2019-01-11T15:49:51.439Z,6.63
2019-01-11T15:52:55.764Z,6.53
2019-01-11T15:56:01.896Z,6.56
2019-01-11T15:59:06.199Z,6.52
2019-01-11T16:02:10.512Z,6.55
2019-01-11T16:05:14.858Z,6.54
2019-01-11T16:08:19.148Z,6.51
2019-01-11T16:11:42.302Z,6.55
2019-01-11T16:14:58.352Z,6.50
2019-01-11T16:18:06.333Z,6.54
2019-01-11T16:21:10.623Z,6.54
2019-01-11T16:24:14.976Z,6.56
2019-01-11T16:27:19.374Z,6.57
2019-01-11T16:30:23.759Z,6.55
2019-01-11T16:33:28.058Z,6.55
2019-01-11T16:36:32.376Z,6.51
2019-01-11T16:39:36.701Z,6.50
2019-01-11T16:42:41.351Z,6.49
2019-01-11T16:45:45.766Z,6.42
2019-01-11T16:48:50.093Z,6.44
2019-01-11T16:51:55.293Z,6.45
2019-01-11T16:54:59.646Z,6.41
2019-01-11T16:58:04.102Z,6.43
2019-01-11T17:01:08.517Z,6.41
2019-01-11T17:04:12.961Z,6.35
2019-01-11T17:07:17.276Z,6.38
2019-01-11T17:10:21.585Z,6.28
2019-01-11T17:13:28.013Z,6.26
2019-01-11T17:16:32.433Z,6.17
2019-01-11T17:19:36.727Z,6.16
2019-01-11T17:22:41.046Z,6.12
2019-01-11T17:25:45.402Z,6.01
2019-01-11T17:28:49.704Z,6.05
2019-01-11T17:31:54.007Z,6.01
2019-01-11T17:34:58.310Z,6.05
2019-01-11T17:38:02.666Z,6.09
2019-01-11T17:41:07.007Z,6.08
2019-01-11T17:44:11.281Z,6.10
2019-01-11T17:47:15.671Z,6.06
2019-01-11T17:50:20.148Z,6.09
2019-01-11T17:53:24.556Z,6.14
2019-01-11T17:56:28.949Z,6.17
2019-01-11T17:59:33.282Z,6.16
2019-01-11T18:02:37.742Z,6.15
2019-01-11T18:05:42.048Z,6.16
2019-01-11T18:08:46.357Z,6.20
2019-01-11T18:11:50.674Z,6.20
2019-01-11T18:14:54.965Z,6.26
2019-01-11T18:18:00.397Z,6.23
2019-01-11T18:21:04.892Z,6.19
2019-01-11T18:24:09.150Z,6.13
2019-01-11T18:27:13.505Z,6.11
2019-01-11T18:30:18.187Z,6.15
2019-01-11T18:33:22.483Z,6.19
2019-01-11T18:36:26.807Z,6.19
2019-01-11T18:39:31.142Z,6.19
2019-01-11T18:42:35.897Z,6.14
2019-01-11T18:45:40.231Z,6.17
2019-01-11T18:48:44.541Z,6.15
2019-01-11T18:51:48.943Z,6.11
2019-01-11T18:54:53.342Z,6.13
2019-01-11T18:57:57.774Z,6.10
2019-01-11T19:01:02.082Z,6.08
2019-01-11T19:04:06.416Z,6.06
2019-01-11T19:07:12.777Z,6.05
2019-01-11T19:10:18.260Z,6.09
2019-01-11T19:13:22.600Z,6.11
2019-01-11T19:16:27.041Z,6.06
2019-01-11T19:19:31.508Z,6.07
2019-01-11T19:22:35.850Z,6.02
2019-01-11T19:25:40.272Z,6.05
2019-01-11T19:28:44.566Z,6.05
2019-01-11T19:31:50.588Z,6.05
2019-01-11T19:34:55.000Z,6.06
2019-01-11T19:37:59.332Z,6.04
2019-01-11T19:41:03.755Z,6.01
2019-01-11T19:44:08.074Z,6.06
2019-01-11T19:47:12.466Z,6.02
2019-01-11T19:50:19.515Z,6.05
2019-01-11T19:53:27.653Z,6.05
2019-01-11T19:56:30.092Z,6.06
2019-01-11T19:59:34.461Z,6.06
2019-01-11T20:02:38.867Z,6.01
2019-01-11T20:05:43.433Z,6.08
2019-01-11T20:08:47.782Z,6.07
2019-01-11T20:11:52.086Z,6.02
2019-01-11T20:14:56.381Z,5.95
2019-01-11T20:18:00.701Z,5.93
2019-01-11T20:21:05.240Z,5.93
2019-01-11T20:24:09.602Z,5.96
2019-01-11T20:27:14.112Z,5.99
2019-01-11T20:30:20.582Z,5.98
2019-01-11T20:33:25.021Z,5.94
2019-01-11T20:36:31.457Z,6.00
2019-01-11T20:39:35.891Z,5.95
2019-01-11T20:42:40.223Z,5.99
2019-01-11T20:45:44.540Z,5.95
2019-01-11T20:48:48.822Z,6.00
2019-01-11T20:51:53.155Z,5.98
2019-01-11T20:54:57.450Z,6.00
2019-01-11T20:58:01.926Z,5.97
2019-01-11T21:01:06.841Z,5.91
2019-01-11T21:04:11.150Z,5.95
2019-01-11T21:07:15.501Z,5.93
2019-01-11T21:10:20.032Z,5.93
2019-01-11T21:13:24.549Z,5.96
2019-01-11T21:16:28.922Z,6.00
2019-01-11T21:19:33.341Z,6.01
2019-01-11T21:22:37.685Z,6.02
2019-01-11T21:25:42.120Z,5.98
2019-01-11T21:28:46.419Z,5.96
2019-01-11T21:31:50.714Z,5.95
2019-01-11T21:34:55.104Z,5.93
2019-01-11T21:37:59.681Z,5.95
2019-01-11T21:41:04.066Z,5.84
2019-01-11T21:44:08.410Z,5.87
2019-01-11T21:47:12.721Z,5.81
2019-01-11T21:50:22.072Z,5.83
2019-01-11T21:53:26.375Z,5.85
2019-01-11T21:56:30.669Z,5.83
2019-01-11T21:59:34.986Z,5.89
2019-01-11T22:02:39.295Z,5.85
2019-01-11T22:05:43.835Z,5.87
2019-01-11T22:08:48.256Z,5.82
2019-01-11T22:11:52.626Z,5.89
2019-01-11T22:14:56.954Z,5.85
2019-01-11T22:18:01.310Z,5.90
2019-01-11T22:21:05.740Z,5.81
2019-01-11T22:24:10.010Z,5.81
2019-01-11T22:27:14.352Z,5.80
2019-01-11T22:30:20.610Z,5.77
2019-01-11T22:33:24.969Z,5.74
2019-01-11T22:36:29.264Z,5.76
2019-01-11T22:39:33.561Z,5.81
2019-01-11T22:42:37.906Z,5.82
2019-01-11T22:45:42.271Z,5.80
2019-01-11T22:48:46.612Z,5.80
2019-01-11T22:51:50.956Z,5.85
2019-01-11T22:54:55.290Z,5.84
2019-01-11T22:57:59.661Z,5.85
2019-01-11T23:01:39.231Z,5.94
2019-01-11T23:04:43.589Z,5.90
2019-01-11T23:07:54.355Z,5.93
2019-01-11T23:11:47.798Z,5.91
2019-01-11T23:14:52.111Z,5.84
2019-01-11T23:18:03.170Z,5.78
2019-01-11T23:21:09.325Z,5.80
2019-01-11T23:24:17.351Z,5.71
2019-01-11T23:27:19.631Z,5.78
2019-01-11T23:30:24.037Z,5.75
2019-01-11T23:33:28.423Z,5.69
2019-01-11T23:36:32.676Z,5.65
2019-01-11T23:39:36.996Z,5.60
2019-01-11T23:42:41.224Z,5.57
2019-01-11T23:45:45.645Z,5.63
2019-01-11T23:48:50.074Z,5.66
2019-01-11T23:51:54.367Z,5.71
2019-01-11T23:54:58.641Z,5.68
2019-01-11T23:58:03.001Z,5.69
